sensor_id;sensor_type;location;lat;lon;timestamp;pressure;altitude;pressure_sealevel;temperature;humidity
58311;BME280;45001;52.218;5.154;2022-08-25T00:00:41;101766.28;;;25.53;59.11
58311;BME280;45001;52.218;5.154;2022-08-25T00:03:06;101769.03;;;25.53;59.04
58311;BME280;45001;52.218;5.154;2022-08-25T00:05:32;101754.50;;;25.53;58.80
58311;BME280;45001;52.218;5.154;2022-08-25T00:07:58;101758.31;;;25.52;59.10
58311;BME280;45001;52.218;5.154;2022-08-25T00:10:23;101754.50;;;25.53;58.71
58311;BME280;45001;52.218;5.154;2022-08-25T00:12:49;101760.84;;;25.53;58.74
58311;BME280;45001;52.218;5.154;2022-08-25T00:15:14;101762.72;;;25.53;58.96
58311;BME280;45001;52.218;5.154;2022-08-25T00:17:39;101757.25;;;25.53;58.60
58311;BME280;45001;52.218;5.154;2022-08-25T00:20:06;101752.88;;;25.52;58.76
58311;BME280;45001;52.218;5.154;2022-08-25T00:22:34;101752.88;;;25.52;58.71
58311;BME280;45001;52.218;5.154;2022-08-25T00:24:59;101751.78;;;25.53;58.79
58311;BME280;45001;52.218;5.154;2022-08-25T00:27:24;101747.41;;;25.52;58.62
58311;BME280;45001;52.218;5.154;2022-08-25T00:29:50;101747.41;;;25.52;58.66
58311;BME280;45001;52.218;5.154;2022-08-25T00:32:15;101751.78;;;25.53;58.67
58311;BME280;45001;52.218;5.154;2022-08-25T00:34:42;101747.41;;;25.52;58.59
58311;BME280;45001;52.218;5.154;2022-08-25T00:37:09;101743.59;;;25.53;58.60
58311;BME280;45001;52.218;5.154;2022-08-25T00:39:35;101746.53;;;25.51;58.87
58311;BME280;45001;52.218;5.154;2022-08-25T00:42:01;101750.13;;;25.52;58.81
58311;BME280;45001;52.218;5.154;2022-08-25T00:44:29;101747.41;;;25.52;58.87
58311;BME280;45001;52.218;5.154;2022-08-25T00:46:57;101750.13;;;25.52;58.79
58311;BME280;45001;52.218;5.154;2022-08-25T00:49:45;101739.22;;;25.52;58.86
58311;BME280;45001;52.218;5.154;2022-08-25T00:54:56;101735.63;;;25.51;58.78
58311;BME280;45001;52.218;5.154;2022-08-25T00:57:35;101740.25;;;25.51;58.53
58311;BME280;45001;52.218;5.154;2022-08-25T01:00:16;101735.63;;;25.51;58.96
58311;BME280;45001;52.218;5.154;2022-08-25T01:02:44;101743.00;;;25.51;58.71
58311;BME280;45001;52.218;5.154;2022-08-25T01:05:09;101732.91;;;25.51;58.87
58311;BME280;45001;52.218;5.154;2022-08-25T01:07:35;101739.44;;;25.50;58.48
58311;BME280;45001;52.218;5.154;2022-08-25T01:10:03;101740.25;;;25.51;58.76
58311;BME280;45001;52.218;5.154;2022-08-25T01:12:28;101737.53;;;25.51;58.47
58311;BME280;45001;52.218;5.154;2022-08-25T01:14:55;101728.50;;;25.50;58.65
58311;BME280;45001;52.218;5.154;2022-08-25T01:17:21;101732.06;;;25.51;58.62
58311;BME280;45001;52.218;5.154;2022-08-25T01:19:46;101730.41;;;25.50;58.58
58311;BME280;45001;52.218;5.154;2022-08-25T01:22:12;101726.84;;;25.49;58.68
58311;BME280;45001;52.218;5.154;2022-08-25T01:24:47;101723.28;;;25.49;58.83
58311;BME280;45001;52.218;5.154;2022-08-25T01:27:15;101727.69;;;25.50;58.81
58311;BME280;45001;52.218;5.154;2022-08-25T01:29:40;101724.09;;;25.49;58.78
58311;BME280;45001;52.218;5.154;2022-08-25T01:32:08;101727.91;;;25.48;58.42
58311;BME280;45001;52.218;5.154;2022-08-25T01:34:39;101726.84;;;25.49;58.80
58311;BME280;45001;52.218;5.154;2022-08-25T01:37:06;101737.75;;;25.49;58.88
58311;BME280;45001;52.218;5.154;2022-08-25T01:39:32;101732.28;;;25.49;58.76
58311;BME280;45001;52.218;5.154;2022-08-25T01:44:34;101732.28;;;25.49;58.84
58311;BME280;45001;52.218;5.154;2022-08-25T01:47:00;101720.75;;;25.47;58.76
58311;BME280;45001;52.218;5.154;2022-08-25T01:49:26;101724.34;;;25.48;58.84
58311;BME280;45001;52.218;5.154;2022-08-25T01:51:56;101727.09;;;25.48;58.63
58311;BME280;45001;52.218;5.154;2022-08-25T01:54:24;101716.16;;;25.48;58.60
58311;BME280;45001;52.218;5.154;2022-08-25T01:56:49;101721.63;;;25.48;58.41
58311;BME280;45001;52.218;5.154;2022-08-25T01:59:17;101713.44;;;25.48;58.82
58311;BME280;45001;52.218;5.154;2022-08-25T02:01:43;101724.34;;;25.48;58.64
58311;BME280;45001;52.218;5.154;2022-08-25T02:04:08;101717.22;;;25.47;58.72
58311;BME280;45001;52.218;5.154;2022-08-25T02:06:33;101712.56;;;25.47;58.19
58311;BME280;45001;52.218;5.154;2022-08-25T02:09:05;101714.47;;;25.47;58.62
58311;BME280;45001;52.218;5.154;2022-08-25T02:11:32;101714.47;;;25.47;58.48
58311;BME280;45001;52.218;5.154;2022-08-25T02:13:58;101711.75;;;25.47;58.68
58311;BME280;45001;52.218;5.154;2022-08-25T02:16:27;101719.13;;;25.46;58.62
58311;BME280;45001;52.218;5.154;2022-08-25T02:18:54;101715.53;;;25.46;58.70
58311;BME280;45001;52.218;5.154;2022-08-25T02:21:19;101707.34;;;25.46;58.57
58311;BME280;45001;52.218;5.154;2022-08-25T02:23:45;101714.72;;;25.45;58.62
58311;BME280;45001;52.218;5.154;2022-08-25T02:26:10;101713.66;;;25.46;58.72
58311;BME280;45001;52.218;5.154;2022-08-25T02:28:36;101713.88;;;25.45;58.78
58311;BME280;45001;52.218;5.154;2022-08-25T02:31:04;101713.06;;;25.44;58.67
58311;BME280;45001;52.218;5.154;2022-08-25T02:33:29;101706.75;;;25.44;58.67
58311;BME280;45001;52.218;5.154;2022-08-25T02:35:59;101704.88;;;25.44;58.21
58311;BME280;45001;52.218;5.154;2022-08-25T02:38:25;101701.28;;;25.44;58.35
58311;BME280;45001;52.218;5.154;2022-08-25T02:40:52;101704.88;;;25.44;58.68
58311;BME280;45001;52.218;5.154;2022-08-25T02:43:17;101696.91;;;25.43;58.47
58311;BME280;45001;52.218;5.154;2022-08-25T02:45:42;101705.09;;;25.43;58.45
58311;BME280;45001;52.218;5.154;2022-08-25T02:48:08;101696.91;;;25.43;58.38
58311;BME280;45001;52.218;5.154;2022-08-25T02:50:33;101699.63;;;25.43;58.38
58311;BME280;45001;52.218;5.154;2022-08-25T02:52:58;101698.56;;;25.44;58.41
58311;BME280;45001;52.218;5.154;2022-08-25T02:55:23;101691.44;;;25.43;58.38
58311;BME280;45001;52.218;5.154;2022-08-25T02:57:49;101688.72;;;25.43;58.43
58311;BME280;45001;52.218;5.154;2022-08-25T03:00:15;101689.97;;;25.40;58.42
58311;BME280;45001;52.218;5.154;2022-08-25T03:02:42;101690.84;;;25.41;58.09
58311;BME280;45001;52.218;5.154;2022-08-25T03:05:08;101687.03;;;25.42;58.03
58311;BME280;45001;52.218;5.154;2022-08-25T03:07:35;101680.97;;;25.40;58.13
58311;BME280;45001;52.218;5.154;2022-08-25T03:10:13;101675.50;;;25.40;57.88
58311;BME280;45001;52.218;5.154;2022-08-25T03:12:39;101673.84;;;25.39;57.85
58311;BME280;45001;52.218;5.154;2022-08-25T03:15:07;101678.25;;;25.40;57.80
58311;BME280;45001;52.218;5.154;2022-08-25T03:17:32;101671.13;;;25.39;57.70
58311;BME280;45001;52.218;5.154;2022-08-25T03:19:57;101665.66;;;25.39;57.67
58311;BME280;45001;52.218;5.154;2022-08-25T03:22:22;101661.03;;;25.39;57.66
58311;BME280;45001;52.218;5.154;2022-08-25T03:24:48;101668.41;;;25.39;57.95
58311;BME280;45001;52.218;5.154;2022-08-25T03:27:13;101661.03;;;25.39;57.84
58311;BME280;45001;52.218;5.154;2022-08-25T03:29:39;101664.00;;;25.38;57.29
58311;BME280;45001;52.218;5.154;2022-08-25T03:32:07;101660.22;;;25.39;57.81
58311;BME280;45001;52.218;5.154;2022-08-25T03:34:32;101661.25;;;25.38;57.55
58311;BME280;45001;52.218;5.154;2022-08-25T03:36:58;101653.06;;;25.38;57.61
58311;BME280;45001;52.218;5.154;2022-08-25T03:39:25;101655.78;;;25.38;57.67
58311;BME280;45001;52.218;5.154;2022-08-25T03:41:52;101652.25;;;25.37;57.60
58311;BME280;45001;52.218;5.154;2022-08-25T03:44:18;101645.94;;;25.37;57.48
58311;BME280;45001;52.218;5.154;2022-08-25T03:46:46;101652.25;;;25.37;57.41
58311;BME280;45001;52.218;5.154;2022-08-25T03:49:16;101639.66;;;25.36;57.08
58311;BME280;45001;52.218;5.154;2022-08-25T03:51:45;101653.06;;;25.38;57.19
58311;BME280;45001;52.218;5.154;2022-08-25T03:54:13;101642.38;;;25.36;56.93
58311;BME280;45001;52.218;5.154;2022-08-25T03:56:39;101639.03;;;25.34;57.04
58311;BME280;45001;52.218;5.154;2022-08-25T03:59:05;101648.06;;;25.34;56.57
58311;BME280;45001;52.218;5.154;2022-08-25T04:01:33;101650.78;;;25.34;56.57
58311;BME280;45001;52.218;5.154;2022-08-25T04:03:59;101643.69;;;25.33;56.66
58311;BME280;45001;52.218;5.154;2022-08-25T04:06:24;101642.59;;;25.34;56.84
58311;BME280;45001;52.218;5.154;2022-08-25T04:08:49;101634.66;;;25.33;56.41
58311;BME280;45001;52.218;5.154;2022-08-25T04:11:19;101625.63;;;25.32;56.25
58311;BME280;45001;52.218;5.154;2022-08-25T04:13:45;101627.53;;;25.32;56.46
58311;BME280;45001;52.218;5.154;2022-08-25T04:16:16;101623.13;;;25.31;56.02
58311;BME280;45001;52.218;5.154;2022-08-25T04:18:43;101623.75;;;25.33;56.08
58311;BME280;45001;52.218;5.154;2022-08-25T04:21:10;101623.97;;;25.31;56.22
58311;BME280;45001;52.218;5.154;2022-08-25T04:23:37;101618.50;;;25.31;56.29
58311;BME280;45001;52.218;5.154;2022-08-25T04:26:15;101621.25;;;25.31;56.06
58311;BME280;45001;52.218;5.154;2022-08-25T04:28:41;101619.56;;;25.30;55.97
58311;BME280;45001;52.218;5.154;2022-08-25T04:31:08;101621.25;;;25.31;55.63
58311;BME280;45001;52.218;5.154;2022-08-25T04:33:34;101613.28;;;25.30;55.97
58311;BME280;45001;52.218;5.154;2022-08-25T04:36:00;101612.44;;;25.29;55.45
58311;BME280;45001;52.218;5.154;2022-08-25T04:38:25;101610.78;;;25.28;55.45
58311;BME280;45001;52.218;5.154;2022-08-25T04:41:11;101617.91;;;25.29;55.76
58311;BME280;45001;52.218;5.154;2022-08-25T04:43:39;101621.69;;;25.28;55.67
58311;BME280;45001;52.218;5.154;2022-08-25T04:46:10;101617.91;;;25.29;55.48
58311;BME280;45001;52.218;5.154;2022-08-25T04:48:43;101628.81;;;25.29;55.43
58311;BME280;45001;52.218;5.154;2022-08-25T04:51:14;101617.06;;;25.29;55.08
58311;BME280;45001;52.218;5.154;2022-08-25T04:53:40;101620.88;;;25.28;55.44
58311;BME280;45001;52.218;5.154;2022-08-25T04:56:16;101614.59;;;25.27;55.14
58311;BME280;45001;52.218;5.154;2022-08-25T04:58:42;101609.56;;;25.24;55.14
58311;BME280;45001;52.218;5.154;2022-08-25T05:01:12;101615.03;;;25.24;55.13
58311;BME280;45001;52.218;5.154;2022-08-25T05:03:40;101607.91;;;25.23;55.21
58311;BME280;45001;52.218;5.154;2022-08-25T05:06:06;101613.34;;;25.23;55.20
58311;BME280;45001;52.218;5.154;2022-08-25T05:08:31;101617.13;;;25.22;54.77
58311;BME280;45001;52.218;5.154;2022-08-25T05:10:57;101619.00;;;25.22;55.04
58311;BME280;45001;52.218;5.154;2022-08-25T05:13:26;101620.69;;;25.23;54.73
58311;BME280;45001;52.218;5.154;2022-08-25T05:15:53;101626.38;;;25.21;54.45
58311;BME280;45001;52.218;5.154;2022-08-25T05:18:20;101627.19;;;25.22;54.70
58311;BME280;45001;52.218;5.154;2022-08-25T05:20:47;101634.91;;;24.26;55.01
58311;BME280;45001;52.218;5.154;2022-08-25T05:23:15;101638.00;;;24.54;57.66
58311;BME280;45001;52.218;5.154;2022-08-25T05:25:41;101633.56;;;24.35;55.96
58311;BME280;45001;52.218;5.154;2022-08-25T05:28:07;101635.63;;;24.14;55.50
58311;BME280;45001;52.218;5.154;2022-08-25T05:30:36;101628.78;;;24.05;55.62
58311;BME280;45001;52.218;5.154;2022-08-25T05:33:02;101633.81;;;24.08;55.13
58311;BME280;45001;52.218;5.154;2022-08-25T05:35:28;101638.09;;;23.91;55.50
58311;BME280;45001;52.218;5.154;2022-08-25T05:37:54;101640.56;;;23.99;55.39
58311;BME280;45001;52.218;5.154;2022-08-25T05:40:21;101648.13;;;23.97;54.78
58311;BME280;45001;52.218;5.154;2022-08-25T05:42:46;101644.66;;;23.83;55.09
58311;BME280;45001;52.218;5.154;2022-08-25T05:45:12;101651.38;;;23.80;54.58
58311;BME280;45001;52.218;5.154;2022-08-25T05:47:38;101640.28;;;23.75;54.61
58311;BME280;45001;52.218;5.154;2022-08-25T05:50:04;101642.38;;;23.73;54.69
58311;BME280;45001;52.218;5.154;2022-08-25T05:52:29;101647.81;;;23.73;54.76
58311;BME280;45001;52.218;5.154;2022-08-25T05:54:54;101656.59;;;23.75;54.51
58311;BME280;45001;52.218;5.154;2022-08-25T05:57:20;101644.88;;;23.82;54.47
58311;BME280;45001;52.218;5.154;2022-08-25T05:59:45;101649.47;;;23.74;54.74
58311;BME280;45001;52.218;5.154;2022-08-25T06:02:10;101652.44;;;23.73;54.72
58311;BME280;45001;52.218;5.154;2022-08-25T06:04:54;101662.25;;;23.74;54.41
58311;BME280;45001;52.218;5.154;2022-08-25T06:07:22;101653.31;;;23.67;54.55
58311;BME280;45001;52.218;5.154;2022-08-25T06:09:47;101649.13;;;23.64;54.69
58311;BME280;45001;52.218;5.154;2022-08-25T06:12:14;101652.75;;;23.58;54.43
58311;BME280;45001;52.218;5.154;2022-08-25T06:14:40;101649.56;;;23.61;54.51
58311;BME280;45001;52.218;5.154;2022-08-25T06:17:06;101650.38;;;23.68;54.24
58311;BME280;45001;52.218;5.154;2022-08-25T06:19:31;101650.94;;;23.77;53.99
58311;BME280;45001;52.218;5.154;2022-08-25T06:21:57;101647.34;;;23.90;53.75
58311;BME280;45001;52.218;5.154;2022-08-25T06:24:24;101649.00;;;23.91;53.62
58311;BME280;45001;52.218;5.154;2022-08-25T06:29:51;101652.13;;;23.56;53.83
58311;BME280;45001;52.218;5.154;2022-08-25T06:32:17;101653.56;;;23.58;53.56
58311;BME280;45001;52.218;5.154;2022-08-25T06:34:42;101652.13;;;23.56;53.45
58311;BME280;45001;52.218;5.154;2022-08-25T06:37:07;101645.81;;;23.62;53.64
58311;BME280;45001;52.218;5.154;2022-08-25T06:39:34;101641.59;;;23.59;53.39
58311;BME280;45001;52.218;5.154;2022-08-25T06:41:59;101645.00;;;23.55;53.38
58311;BME280;45001;52.218;5.154;2022-08-25T06:44:25;101646.22;;;23.59;53.09
58311;BME280;45001;52.218;5.154;2022-08-25T06:46:52;101640.97;;;23.64;53.20
58311;BME280;45001;52.218;5.154;2022-08-25T06:49:18;101642.47;;;23.60;52.97
58311;BME280;45001;52.218;5.154;2022-08-25T06:51:43;101641.38;;;23.68;52.74
58311;BME280;45001;52.218;5.154;2022-08-25T06:54:10;101636.09;;;23.79;51.82
58311;BME280;45001;52.218;5.154;2022-08-25T06:56:36;101640.50;;;23.80;51.77
58311;BME280;45001;52.218;5.154;2022-08-25T06:59:04;101635.59;;;23.89;51.54
58311;BME280;45001;52.218;5.154;2022-08-25T07:01:31;101639.53;;;24.25;52.25
58311;BME280;45001;52.218;5.154;2022-08-25T07:03:58;101634.75;;;25.26;51.29
58311;BME280;45001;52.218;5.154;2022-08-25T07:06:24;101638.56;;;25.98;50.64
58311;BME280;45001;52.218;5.154;2022-08-25T07:08:52;101634.22;;;26.56;50.37
58311;BME280;45001;52.218;5.154;2022-08-25T07:11:18;101637.47;;;26.53;51.44
58311;BME280;45001;52.218;5.154;2022-08-25T07:13:45;101639.72;;;26.44;52.22
58311;BME280;45001;52.218;5.154;2022-08-25T07:16:10;101637.19;;;26.42;53.07
58311;BME280;45001;52.218;5.154;2022-08-25T07:18:36;101639.59;;;26.50;53.48
58311;BME280;45001;52.218;5.154;2022-08-25T07:21:01;101637.56;;;26.58;53.82
58311;BME280;45001;52.218;5.154;2022-08-25T07:23:27;101639.84;;;26.61;53.98
58311;BME280;45001;52.218;5.154;2022-08-25T07:25:52;101638.56;;;26.63;54.24
58311;BME280;45001;52.218;5.154;2022-08-25T07:28:19;101641.97;;;26.82;54.11
58311;BME280;45001;52.218;5.154;2022-08-25T07:30:45;101648.28;;;26.83;54.52
58311;BME280;45001;52.218;5.154;2022-08-25T07:33:10;101642.19;;;26.93;54.03
58311;BME280;45001;52.218;5.154;2022-08-25T07:35:36;101651.84;;;26.95;54.44
58311;BME280;45001;52.218;5.154;2022-08-25T07:38:02;101647.44;;;26.94;54.92
58311;BME280;45001;52.218;5.154;2022-08-25T07:40:31;101644.56;;;27.01;54.79
58311;BME280;45001;52.218;5.154;2022-08-25T07:42:59;101639.91;;;27.01;54.68
58311;BME280;45001;52.218;5.154;2022-08-25T07:45:27;101628.50;;;27.04;54.96
58311;BME280;45001;52.218;5.154;2022-08-25T07:50:28;101620.25;;;27.16;55.12
58311;BME280;45001;52.218;5.154;2022-08-25T07:52:55;101624.75;;;27.22;54.73
58311;BME280;45001;52.218;5.154;2022-08-25T07:55:22;101629.78;;;27.25;54.87
58311;BME280;45001;52.218;5.154;2022-08-25T07:57:47;101626.28;;;27.30;54.95
58311;BME280;45001;52.218;5.154;2022-08-25T08:00:15;101628.31;;;27.35;54.70
58311;BME280;45001;52.218;5.154;2022-08-25T08:02:42;101622.97;;;27.28;54.93
58311;BME280;45001;52.218;5.154;2022-08-25T08:05:09;101625.25;;;27.19;55.71
58311;BME280;45001;52.218;5.154;2022-08-25T08:07:35;101622.63;;;27.13;55.64
58311;BME280;45001;52.218;5.154;2022-08-25T08:10:01;101633.81;;;27.11;53.09
58311;BME280;45001;52.218;5.154;2022-08-25T08:12:27;101628.78;;;26.67;48.08
58311;BME280;45001;52.218;5.154;2022-08-25T08:14:52;101615.56;;;26.29;46.63
58311;BME280;45001;52.218;5.154;2022-08-25T08:17:18;101617.97;;;26.61;47.55
58311;BME280;45001;52.218;5.154;2022-08-25T08:19:44;101632.09;;;26.81;49.37
58311;BME280;45001;52.218;5.154;2022-08-25T08:22:10;101623.63;;;26.95;49.83
58311;BME280;45001;52.218;5.154;2022-08-25T08:24:35;101629.22;;;27.00;50.11
58311;BME280;45001;52.218;5.154;2022-08-25T08:27:07;101619.31;;;27.11;50.30
58311;BME280;45001;52.218;5.154;2022-08-25T08:29:35;101617.25;;;27.18;50.41
58311;BME280;45001;52.218;5.154;2022-08-25T08:32:03;101615.13;;;27.20;50.29
58311;BME280;45001;52.218;5.154;2022-08-25T08:34:29;101618.44;;;27.22;50.75
58311;BME280;45001;52.218;5.154;2022-08-25T08:36:55;101614.97;;;27.26;50.89
58311;BME280;45001;52.218;5.154;2022-08-25T08:39:21;101618.91;;;27.31;50.84
58311;BME280;45001;52.218;5.154;2022-08-25T08:50:09;101604.72;;;27.34;51.71
58311;BME280;45001;52.218;5.154;2022-08-25T08:52:49;101609.25;;;27.40;51.58
58311;BME280;45001;52.218;5.154;2022-08-25T08:55:42;101605.16;;;27.42;52.00
58311;BME280;45001;52.218;5.154;2022-08-25T08:58:17;101605.50;;;27.46;51.64
58311;BME280;45001;52.218;5.154;2022-08-25T09:00:47;101610.88;;;27.41;52.01
58311;BME280;45001;52.218;5.154;2022-08-25T09:03:26;101599.69;;;27.42;51.54
58311;BME280;45001;52.218;5.154;2022-08-25T09:05:55;101600.75;;;27.41;52.29
58311;BME280;45001;52.218;5.154;2022-08-25T09:08:24;101600.75;;;27.41;52.30
58311;BME280;45001;52.218;5.154;2022-08-25T09:11:06;101602.91;;;27.39;52.83
58311;BME280;45001;52.218;5.154;2022-08-25T09:13:56;101602.03;;;27.51;52.46
58311;BME280;45001;52.218;5.154;2022-08-25T09:24:51;101600.66;;;27.82;52.65
58311;BME280;45001;52.218;5.154;2022-08-25T09:30:12;101609.69;;;27.94;52.41
58311;BME280;45001;52.218;5.154;2022-08-25T09:32:45;101607.44;;;27.91;52.68
58311;BME280;45001;52.218;5.154;2022-08-25T09:35:22;101603.31;;;26.55;48.44
58311;BME280;45001;52.218;5.154;2022-08-25T09:38:08;101599.88;;;26.01;50.14
58311;BME280;45001;52.218;5.154;2022-08-25T09:40:36;101600.81;;;26.06;51.39
58311;BME280;45001;52.218;5.154;2022-08-25T09:43:11;101595.59;;;26.17;51.50
58311;BME280;45001;52.218;5.154;2022-08-25T09:45:44;101592.84;;;26.17;51.64
58311;BME280;45001;52.218;5.154;2022-08-25T09:48:22;101583.00;;;26.16;51.97
58311;BME280;45001;52.218;5.154;2022-08-25T09:50:58;101586.19;;;26.13;51.88
58311;BME280;45001;52.218;5.154;2022-08-25T09:53:26;101586.44;;;26.11;52.14
58311;BME280;45001;52.218;5.154;2022-08-25T09:56:02;101576.22;;;26.06;52.55
58311;BME280;45001;52.218;5.154;2022-08-25T09:58:32;101575.63;;;26.04;52.37
58311;BME280;45001;52.218;5.154;2022-08-25T10:01:20;101574.19;;;26.02;52.59
58311;BME280;45001;52.218;5.154;2022-08-25T10:04:03;101566.25;;;26.00;52.25
58311;BME280;45001;52.218;5.154;2022-08-25T10:06:34;101565.66;;;25.98;52.20
58311;BME280;45001;52.218;5.154;2022-08-25T10:09:05;101563.97;;;25.97;52.43
58311;BME280;45001;52.218;5.154;2022-08-25T10:11:43;101555.19;;;25.95;52.28
58311;BME280;45001;52.218;5.154;2022-08-25T10:14:36;101560.66;;;25.95;52.44
58311;BME280;45001;52.218;5.154;2022-08-25T10:19:41;101553.97;;;25.91;52.30
58311;BME280;45001;52.218;5.154;2022-08-25T10:22:26;101554.19;;;25.89;52.18
58311;BME280;45001;52.218;5.154;2022-08-25T10:24:59;101555.25;;;25.88;52.03
58311;BME280;45001;52.218;5.154;2022-08-25T10:28:05;101548.16;;;25.87;52.10
58311;BME280;45001;52.218;5.154;2022-08-25T10:36:16;101536.84;;;25.84;52.21
58311;BME280;45001;52.218;5.154;2022-08-25T10:38:48;101543.16;;;25.84;52.05
58311;BME280;45001;52.218;5.154;2022-08-25T10:50:04;101526.41;;;25.81;51.81
58311;BME280;45001;52.218;5.154;2022-08-25T10:55:25;101523.06;;;25.79;52.40
58311;BME280;45001;52.218;5.154;2022-08-25T10:58:01;101515.97;;;25.78;51.88
58311;BME280;45001;52.218;5.154;2022-08-25T11:00:41;101514.28;;;25.77;51.79
58311;BME280;45001;52.218;5.154;2022-08-25T11:06:06;101499.81;;;25.76;52.43
58311;BME280;45001;52.218;5.154;2022-08-25T11:08:45;101506.31;;;25.75;52.01
58311;BME280;45001;52.218;5.154;2022-08-25T11:11:18;101502.75;;;25.75;52.18
58311;BME280;45001;52.218;5.154;2022-08-25T11:16:35;101498.13;;;25.75;52.57
58311;BME280;45001;52.218;5.154;2022-08-25T11:19:19;101494.56;;;25.75;52.68
58311;BME280;45001;52.218;5.154;2022-08-25T11:27:21;101496.72;;;25.72;52.72
58311;BME280;45001;52.218;5.154;2022-08-25T11:30:05;101496.72;;;25.72;53.04
58311;BME280;45001;52.218;5.154;2022-08-25T11:32:33;101486.84;;;25.71;52.87
58311;BME280;45001;52.218;5.154;2022-08-25T11:35:07;101488.75;;;25.71;53.16
58311;BME280;45001;52.218;5.154;2022-08-25T11:37:40;101487.91;;;25.70;52.79
58311;BME280;45001;52.218;5.154;2022-08-25T11:40:12;101490.66;;;25.70;53.00
58311;BME280;45001;52.218;5.154;2022-08-25T11:42:50;101482.47;;;25.70;53.00
58311;BME280;45001;52.218;5.154;2022-08-25T11:45:40;101490.66;;;25.70;53.00
58311;BME280;45001;52.218;5.154;2022-08-25T11:48:12;101490.66;;;25.70;52.95
58311;BME280;45001;52.218;5.154;2022-08-25T11:51:06;101498.00;;;25.70;52.74
58311;BME280;45001;52.218;5.154;2022-08-25T11:53:40;101486.25;;;25.69;52.95
58311;BME280;45001;52.218;5.154;2022-08-25T11:56:07;101488.97;;;25.69;53.04
58311;BME280;45001;52.218;5.154;2022-08-25T11:58:47;101494.44;;;25.69;52.85
58311;BME280;45001;52.218;5.154;2022-08-25T12:07:16;101482.47;;;25.70;52.91
58311;BME280;45001;52.218;5.154;2022-08-25T12:12:38;101483.50;;;25.69;53.13
58311;BME280;45001;52.218;5.154;2022-08-25T12:15:23;101475.31;;;25.69;53.02
58311;BME280;45001;52.218;5.154;2022-08-25T12:26:40;101469.84;;;25.69;52.69
58311;BME280;45001;52.218;5.154;2022-08-25T12:29:16;101475.31;;;25.69;52.92
58311;BME280;45001;52.218;5.154;2022-08-25T12:34:43;101465.22;;;25.70;52.64
58311;BME280;45001;52.218;5.154;2022-08-25T12:37:23;101458.94;;;25.69;52.72
58311;BME280;45001;52.218;5.154;2022-08-25T12:42:24;101471.53;;;25.70;52.71
58311;BME280;45001;52.218;5.154;2022-08-25T12:45:16;101466.06;;;25.70;52.73
58311;BME280;45001;52.218;5.154;2022-08-25T12:51:00;101457.88;;;25.70;52.59
58311;BME280;45001;52.218;5.154;2022-08-25T12:53:48;101451.56;;;25.70;52.48
58311;BME280;45001;52.218;5.154;2022-08-25T12:56:23;101455.16;;;25.70;52.47
58311;BME280;45001;52.218;5.154;2022-08-25T13:01:38;101449.69;;;25.70;52.45
58311;BME280;45001;52.218;5.154;2022-08-25T13:07:04;101447.53;;;25.72;52.21
58311;BME280;45001;52.218;5.154;2022-08-25T13:09:48;101440.41;;;25.71;52.36
58311;BME280;45001;52.218;5.154;2022-08-25T13:12:30;101436.63;;;25.72;52.09
58311;BME280;45001;52.218;5.154;2022-08-25T13:14:58;101444.81;;;25.72;52.15
58311;BME280;45001;52.218;5.154;2022-08-25T13:17:34;101436.63;;;25.72;52.29
58311;BME280;45001;52.218;5.154;2022-08-25T13:20:24;101439.34;;;25.72;52.30
58311;BME280;45001;52.218;5.154;2022-08-25T13:22:52;101435.75;;;25.72;52.31
58311;BME280;45001;52.218;5.154;2022-08-25T13:25:22;101436.63;;;25.72;52.52
58311;BME280;45001;52.218;5.154;2022-08-25T13:27:52;101426.75;;;25.71;52.32
58311;BME280;45001;52.218;5.154;2022-08-25T13:30:24;101429.47;;;25.71;52.20
58311;BME280;45001;52.218;5.154;2022-08-25T13:32:50;101431.16;;;25.72;52.25
58311;BME280;45001;52.218;5.154;2022-08-25T13:35:29;101427.34;;;25.73;52.20
58311;BME280;45001;52.218;5.154;2022-08-25T13:38:16;101422.72;;;25.74;52.11
58311;BME280;45001;52.218;5.154;2022-08-25T13:40:42;101423.56;;;25.75;51.98
58311;BME280;45001;52.218;5.154;2022-08-25T13:43:11;101421.88;;;25.73;52.21
58311;BME280;45001;52.218;5.154;2022-08-25T13:45:40;101429.00;;;25.75;52.15
58311;BME280;45001;52.218;5.154;2022-08-25T13:48:06;101418.91;;;25.75;52.43
58311;BME280;45001;52.218;5.154;2022-08-25T13:50:35;101421.66;;;25.75;52.17
58311;BME280;45001;52.218;5.154;2022-08-25T13:55:36;101414.28;;;25.76;52.08
58311;BME280;45001;52.218;5.154;2022-08-25T13:58:03;101413.22;;;25.77;52.23
58311;BME280;45001;52.218;5.154;2022-08-25T14:00:48;101404.19;;;25.76;52.42
58311;BME280;45001;52.218;5.154;2022-08-25T14:03:36;101407.75;;;25.77;52.50
58311;BME280;45001;52.218;5.154;2022-08-25T14:08:42;101413.22;;;25.77;52.14
58311;BME280;45001;52.218;5.154;2022-08-25T14:11:29;101401.47;;;25.76;52.28
58311;BME280;45001;52.218;5.154;2022-08-25T14:14:00;101404.78;;;25.78;52.24
58311;BME280;45001;52.218;5.154;2022-08-25T14:16:27;101402.28;;;25.77;52.16
58311;BME280;45001;52.218;5.154;2022-08-25T14:18:54;101391.13;;;25.78;52.20
58311;BME280;45001;52.218;5.154;2022-08-25T14:21:26;101400.16;;;25.79;52.12
58311;BME280;45001;52.218;5.154;2022-08-25T14:23:53;101390.31;;;25.78;52.34
58311;BME280;45001;52.218;5.154;2022-08-25T14:26:19;101397.41;;;25.79;52.05
58311;BME280;45001;52.218;5.154;2022-08-25T14:28:45;101397.41;;;25.79;52.32
58311;BME280;45001;52.218;5.154;2022-08-25T14:31:31;101391.72;;;25.80;52.36
58311;BME280;45001;52.218;5.154;2022-08-25T14:33:59;101390.91;;;25.80;52.22
58311;BME280;45001;52.218;5.154;2022-08-25T14:36:28;101394.44;;;25.80;52.05
58311;BME280;45001;52.218;5.154;2022-08-25T14:38:54;101389.00;;;25.80;52.16
58311;BME280;45001;52.218;5.154;2022-08-25T14:41:20;101384.34;;;25.81;52.29